createdAt,value
2023-05-20T00:00:51.640Z,99936.81
2023-05-20T00:03:20.145Z,99931.03
2023-05-20T00:05:48.480Z,99927.53
2023-05-20T00:08:16.135Z,99920.81
2023-05-20T00:10:44.120Z,99912.97
2023-05-20T00:13:11.798Z,99918.13
2023-05-20T00:15:39.431Z,99913.06
2023-05-20T00:18:07.625Z,99905.94
2023-05-20T00:20:35.436Z,99899.63
2023-05-20T00:23:03.025Z,99902.37
2023-05-20T00:25:31.018Z,99892.28
2023-05-20T00:27:58.890Z,99885.16
2023-05-20T00:30:26.592Z,99888.03
2023-05-20T00:32:54.650Z,99891.00
2023-05-20T00:35:22.372Z,99891.00
2023-05-20T00:37:49.991Z,99884.13
2023-05-20T00:40:18.134Z,99890.12
2023-05-20T00:42:45.749Z,99893.72
2023-05-20T00:45:13.476Z,99886.50
2023-05-20T00:47:42.458Z,99886.87
2023-05-20T00:50:10.750Z,99883.84
2023-05-20T00:52:40.816Z,99894.00
2023-05-20T00:55:08.982Z,99888.66
2023-05-20T00:57:36.668Z,99896.22
2023-05-20T01:00:05.800Z,99894.16
2023-05-20T01:02:34.687Z,99890.66
2023-05-20T01:05:02.417Z,99895.56
2023-05-20T01:07:30.267Z,99898.88
2023-05-20T01:10:02.065Z,99896.41
2023-05-20T01:12:37.344Z,99902.28
2023-05-20T01:15:09.233Z,99897.34
2023-05-20T01:17:39.944Z,99899.88
2023-05-20T01:20:09.144Z,99896.56
2023-05-20T01:22:38.437Z,99902.44
2023-05-20T01:25:06.459Z,99904.06
2023-05-20T01:27:34.559Z,99906.75
2023-05-20T01:30:02.159Z,99913.31
2023-05-20T01:32:35.181Z,99911.38
2023-05-20T01:35:03.711Z,99916.19
2023-05-20T01:37:31.835Z,99913.00
2023-05-20T01:39:59.999Z,99914.59
2023-05-20T01:42:28.134Z,99909.78
2023-05-20T01:44:55.879Z,99913.62
2023-05-20T01:47:23.624Z,99915.22
2023-05-20T01:49:51.699Z,99915.38
2023-05-20T01:52:20.361Z,99917.13
2023-05-20T01:54:48.087Z,99913.12
2023-05-20T01:57:18.405Z,99912.38
2023-05-20T01:59:46.153Z,99916.19
2023-05-20T02:02:14.501Z,99916.19
2023-05-20T02:04:45.226Z,99908.56
2023-05-20T02:07:14.540Z,99905.53
2023-05-20T02:09:42.209Z,99911.09
2023-05-20T02:12:10.736Z,99910.44
2023-05-20T02:14:38.520Z,99900.44
2023-05-20T02:17:06.114Z,99908.22
2023-05-20T02:19:34.140Z,99904.88
2023-05-20T02:22:02.123Z,99906.81
2023-05-20T02:24:29.779Z,99908.81
2023-05-20T02:26:57.491Z,99917.37
2023-05-20T02:29:25.928Z,99918.81
2023-05-20T02:31:53.673Z,99914.84
2023-05-20T02:34:22.265Z,99909.25
2023-05-20T02:36:50.360Z,99909.16
2023-05-20T02:39:18.262Z,99904.81
2023-05-20T02:41:46.066Z,99900.41
2023-05-20T02:44:14.555Z,99909.16
2023-05-20T02:46:45.430Z,99906.00
2023-05-20T02:49:13.206Z,99905.69
2023-05-20T02:51:41.155Z,99908.34
2023-05-20T02:54:08.983Z,99909.28
2023-05-20T02:56:36.659Z,99909.50
2023-05-20T02:59:04.677Z,99909.56
2023-05-20T03:01:32.607Z,99909.50
2023-05-20T03:04:02.471Z,99915.63
2023-05-20T03:06:30.623Z,99917.19
2023-05-20T03:08:59.108Z,99919.59
2023-05-20T03:11:26.892Z,99918.66
2023-05-20T03:13:54.853Z,99934.72
2023-05-20T03:16:22.926Z,99927.91
2023-05-20T03:18:50.656Z,99921.56
2023-05-20T03:21:18.710Z,99931.72
2023-05-20T03:23:46.346Z,99932.66
2023-05-20T03:26:14.073Z,99930.03
2023-05-20T03:28:42.036Z,99937.31
2023-05-20T03:31:09.885Z,99943.41
2023-05-20T03:33:37.664Z,99943.69
2023-05-20T03:36:05.923Z,99937.03
2023-05-20T03:38:33.891Z,99949.09
2023-05-20T03:41:01.474Z,99944.56
2023-05-20T03:43:29.462Z,99941.16
2023-05-20T03:45:57.563Z,99941.41
2023-05-20T03:48:25.307Z,99948.66
2023-05-20T03:50:54.271Z,99947.31
2023-05-20T03:53:21.989Z,99954.44
2023-05-20T03:55:49.657Z,99949.78
2023-05-20T03:58:17.736Z,99942.81
2023-05-20T04:00:45.770Z,99953.09
2023-05-20T04:03:13.897Z,99953.16
2023-05-20T04:05:41.665Z,99951.22
2023-05-20T04:08:10.471Z,99956.47
2023-05-20T04:10:38.419Z,99954.78
2023-05-20T04:13:06.128Z,99956.88
2023-05-20T04:15:36.272Z,99956.06
2023-05-20T04:18:05.374Z,99955.59
2023-05-20T04:20:33.203Z,99962.44
2023-05-20T04:23:01.337Z,99951.16
2023-05-20T04:25:29.327Z,99969.81
2023-05-20T04:27:57.292Z,99965.19
2023-05-20T04:30:25.223Z,99961.41
2023-05-20T04:32:54.228Z,99966.00
2023-05-20T04:35:22.056Z,99961.88
2023-05-20T04:37:49.963Z,99959.62
2023-05-20T04:40:17.960Z,99959.00
2023-05-20T04:42:45.818Z,99961.06
2023-05-20T04:45:13.539Z,99967.75
2023-05-20T04:47:41.805Z,99964.72
2023-05-20T04:50:10.467Z,99964.25
2023-05-20T04:52:38.336Z,99969.94
2023-05-20T04:55:08.051Z,99972.63
2023-05-20T04:57:36.192Z,99973.53
2023-05-20T05:00:05.594Z,99974.75
2023-05-20T05:02:34.702Z,99971.31
2023-05-20T05:05:02.552Z,99974.47
2023-05-20T05:07:30.435Z,99972.41
2023-05-20T05:10:01.860Z,99970.78
2023-05-20T05:12:30.463Z,99970.47
2023-05-20T05:14:59.186Z,99969.97
2023-05-20T05:17:27.163Z,99967.81
2023-05-20T05:19:54.989Z,99972.75
2023-05-20T05:22:23.248Z,99970.03
2023-05-20T05:24:51.748Z,99969.66
2023-05-20T05:27:19.414Z,99959.94
2023-05-20T05:29:47.473Z,99961.69
2023-05-20T05:32:15.228Z,99962.97
2023-05-20T05:34:43.074Z,99966.81
2023-05-20T05:37:11.087Z,99972.69
2023-05-20T05:39:38.923Z,99969.78
2023-05-20T05:42:06.688Z,99973.91
2023-05-20T05:44:35.517Z,99970.91
2023-05-20T05:47:06.194Z,99972.22
2023-05-20T05:49:34.647Z,99974.28
2023-05-20T05:52:03.177Z,99977.50
2023-05-20T05:54:31.032Z,99975.19
2023-05-20T05:56:59.192Z,99984.59
2023-05-20T05:59:27.705Z,99986.41
2023-05-20T06:01:56.010Z,99980.63
2023-05-20T06:04:24.514Z,99984.78
2023-05-20T06:06:52.422Z,99978.53
2023-05-20T06:09:20.924Z,99965.03
2023-05-20T06:11:48.968Z,99974.03
2023-05-20T06:14:16.697Z,99973.84
2023-05-20T06:16:45.804Z,99979.16
2023-05-20T06:19:13.903Z,99980.75
2023-05-20T06:21:41.595Z,99977.91
2023-05-20T06:24:12.214Z,99980.28
2023-05-20T06:26:41.435Z,99978.87
2023-05-20T06:29:09.425Z,99976.06
2023-05-20T06:31:37.028Z,99975.66
2023-05-20T06:34:05.031Z,99970.22
2023-05-20T06:36:33.759Z,99989.25
2023-05-20T06:39:01.501Z,99981.50
2023-05-20T06:41:30.077Z,99983.97
2023-05-20T06:43:58.046Z,99980.56
2023-05-20T06:46:30.798Z,99992.47
2023-05-20T06:49:00.413Z,99993.72
2023-05-20T06:51:28.373Z,99994.97
2023-05-20T06:53:56.889Z,99991.34
2023-05-20T06:56:24.677Z,99981.69
2023-05-20T06:58:52.267Z,99974.75
2023-05-20T07:01:20.304Z,99984.69
2023-05-20T07:03:48.250Z,99978.56
2023-05-20T07:06:16.561Z,99986.69
2023-05-20T07:08:44.951Z,99975.88
2023-05-20T07:11:13.514Z,99974.22
2023-05-20T07:13:41.362Z,99970.81
2023-05-20T07:16:10.008Z,99968.22
2023-05-20T07:18:38.549Z,99970.22
2023-05-20T07:21:06.247Z,99980.53
2023-05-20T07:23:34.668Z,99973.69
2023-05-20T07:26:02.360Z,99977.44
2023-05-20T07:28:30.060Z,99966.59
2023-05-20T07:30:58.406Z,99969.03
2023-05-20T07:33:26.377Z,99973.44
2023-05-20T07:35:54.418Z,99971.78
2023-05-20T07:38:26.553Z,99974.19
2023-05-20T07:41:00.175Z,99972.88
2023-05-20T07:43:29.359Z,99971.63
2023-05-20T07:45:58.430Z,99963.84
2023-05-20T07:48:26.830Z,99961.63
2023-05-20T07:50:55.409Z,99976.94
2023-05-20T07:53:23.673Z,99969.97
2023-05-20T07:55:52.332Z,99966.09
2023-05-20T07:58:21.182Z,99963.25
2023-05-20T08:00:48.946Z,99962.06
2023-05-20T08:03:17.368Z,99965.78
2023-05-20T08:05:46.391Z,99961.13
2023-05-20T08:08:14.245Z,99968.78
2023-05-20T08:10:43.068Z,99960.81
2023-05-20T08:13:10.735Z,99957.66
2023-05-20T08:15:38.598Z,99965.22
2023-05-20T08:18:07.371Z,99960.66
2023-05-20T08:20:35.327Z,99957.38
2023-05-20T08:23:02.940Z,99962.28
2023-05-20T08:25:30.935Z,99956.53
2023-05-20T08:28:01.775Z,99955.56
2023-05-20T08:30:29.867Z,99957.16
2023-05-20T08:32:58.172Z,99953.34
2023-05-20T08:35:26.682Z,99956.78
2023-05-20T08:37:54.375Z,99956.16
2023-05-20T08:40:22.652Z,99950.94
2023-05-20T08:42:52.042Z,99955.41
2023-05-20T08:45:21.210Z,99948.53
2023-05-20T08:47:50.677Z,99950.25
2023-05-20T08:50:18.966Z,99952.25
2023-05-20T08:52:47.462Z,99951.09
2023-05-20T08:55:18.789Z,99950.84
2023-05-20T08:57:51.073Z,99953.84
2023-05-20T09:00:19.257Z,99942.03
2023-05-20T09:02:46.919Z,99942.03
2023-05-20T09:05:14.734Z,99930.09
2023-05-20T09:07:42.933Z,99936.88
2023-05-20T09:10:10.694Z,99931.41
2023-05-20T09:12:38.395Z,99930.59
2023-05-20T09:18:12.044Z,99939.22
2023-05-20T09:20:40.179Z,99941.84
2023-05-20T09:23:09.624Z,99942.75
2023-05-20T09:25:37.708Z,99935.84
2023-05-20T09:28:07.692Z,99933.75
2023-05-20T09:30:35.718Z,99919.63
2023-05-20T09:33:04.949Z,99920.41
2023-05-20T09:35:35.962Z,99921.91
2023-05-20T09:38:08.378Z,99914.94
2023-05-20T09:40:36.411Z,99918.84
2023-05-20T09:43:08.303Z,99918.59
2023-05-20T09:45:37.819Z,99913.22
2023-05-20T09:48:05.871Z,99914.94
2023-05-20T09:50:33.758Z,99906.31
2023-05-20T09:53:05.187Z,99894.28
2023-05-20T09:55:34.020Z,99898.97
2023-05-20T09:58:03.301Z,99903.69
2023-05-20T10:00:31.014Z,99897.88
2023-05-20T10:02:59.959Z,99898.72
2023-05-20T10:05:35.516Z,99895.25
2023-05-20T10:08:40.280Z,99894.50
2023-05-20T10:11:35.982Z,99887.13
2023-05-20T10:14:17.820Z,99883.16
2023-05-20T10:17:06.099Z,99884.78
2023-05-20T10:19:34.651Z,99888.34
2023-05-20T10:22:06.124Z,99884.38
2023-05-20T10:24:38.877Z,99885.19
2023-05-20T10:27:14.658Z,99875.75
2023-05-20T10:30:01.271Z,99871.03
2023-05-20T10:32:30.722Z,99868.66
2023-05-20T10:35:03.730Z,99864.34
2023-05-20T10:37:33.833Z,99854.13
2023-05-20T10:40:09.244Z,99861.94
2023-05-20T10:42:39.242Z,99856.84
2023-05-20T10:45:07.498Z,99850.94
2023-05-20T10:47:35.872Z,99843.38
2023-05-20T10:50:04.174Z,99844.91
2023-05-20T10:52:36.237Z,99837.69
2023-05-20T10:55:04.352Z,99828.75
2023-05-20T10:57:34.307Z,99836.53
2023-05-20T11:00:01.930Z,99831.47
2023-05-20T11:02:30.387Z,99834.03
2023-05-20T11:04:58.935Z,99829.53
2023-05-20T11:07:31.201Z,99825.06
2023-05-20T11:09:59.730Z,99825.97
2023-05-20T11:12:28.080Z,99816.19
2023-05-20T11:14:55.891Z,99830.19
2023-05-20T11:17:23.859Z,99830.84
2023-05-20T11:19:51.488Z,99824.03
2023-05-20T11:22:19.183Z,99822.47
2023-05-20T11:24:47.369Z,99828.84
2023-05-20T11:27:15.136Z,99820.53
2023-05-20T11:29:42.900Z,99816.25
2023-05-20T11:32:10.905Z,99812.31
2023-05-20T11:34:39.383Z,99820.19
2023-05-20T11:37:10.290Z,99816.97
2023-05-20T11:39:39.359Z,99809.00
2023-05-20T11:42:16.341Z,99812.59
2023-05-20T11:45:13.867Z,99813.50
2023-05-20T11:47:41.503Z,99806.94
2023-05-20T11:50:10.092Z,99812.47
2023-05-20T11:52:37.696Z,99802.97
2023-05-20T11:55:05.867Z,99801.03
2023-05-20T11:57:33.793Z,99804.03
2023-05-20T12:00:01.422Z,99797.44
2023-05-20T12:02:29.175Z,99808.63
2023-05-20T12:04:57.194Z,99805.72
2023-05-20T12:07:24.897Z,99804.94
2023-05-20T12:09:52.545Z,99804.22
2023-05-20T12:12:20.434Z,99800.84
2023-05-20T12:14:48.306Z,99800.16
2023-05-20T12:17:15.941Z,99799.28
2023-05-20T12:19:44.039Z,99796.31
2023-05-20T12:22:11.611Z,99786.91
2023-05-20T12:24:39.247Z,99790.13
2023-05-20T12:27:07.239Z,99794.31
2023-05-20T12:29:34.859Z,99784.56
2023-05-20T12:32:02.616Z,99777.12
2023-05-20T12:34:30.594Z,99776.22
2023-05-20T12:36:58.641Z,99786.09
2023-05-20T12:39:26.202Z,99782.63
2023-05-20T12:41:54.062Z,99782.28
2023-05-20T12:44:21.819Z,99775.34
2023-05-20T12:46:49.619Z,99778.72
2023-05-20T12:49:17.606Z,99783.81
2023-05-20T12:51:45.254Z,99771.25
2023-05-20T12:54:12.884Z,99776.69
2023-05-20T12:56:40.832Z,99766.88
2023-05-20T12:59:08.522Z,99778.00
2023-05-20T13:01:36.260Z,99768.09
2023-05-20T13:04:04.507Z,99765.53
2023-05-20T13:06:33.597Z,99760.59
2023-05-20T13:09:01.352Z,99757.78
2023-05-20T13:11:29.390Z,99764.03
2023-05-20T13:13:57.036Z,99750.37
2023-05-20T13:16:25.377Z,99750.56
2023-05-20T13:18:53.396Z,99751.75
2023-05-20T13:21:21.169Z,99739.12
2023-05-20T13:23:48.845Z,99741.66
2023-05-20T13:26:18.613Z,99737.72
2023-05-20T13:28:46.504Z,99738.41
2023-05-20T13:31:14.239Z,99730.94
2023-05-20T13:33:42.261Z,99729.66
2023-05-20T13:36:09.919Z,99727.78
2023-05-20T13:38:37.816Z,99717.81
2023-05-20T13:41:05.961Z,99722.31
2023-05-20T13:43:33.663Z,99714.81
2023-05-20T13:46:01.324Z,99719.56
2023-05-20T13:48:29.464Z,99718.63
2023-05-20T13:50:57.148Z,99725.53
2023-05-20T13:53:24.870Z,99715.66
2023-05-20T13:55:52.880Z,99705.19
2023-05-20T13:58:20.492Z,99715.81
2023-05-20T14:00:48.210Z,99702.72
2023-05-20T14:03:16.249Z,99709.91
2023-05-20T14:05:43.941Z,99702.38
2023-05-20T14:08:12.426Z,99701.78
2023-05-20T14:10:40.368Z,99694.38
2023-05-20T14:13:08.812Z,99694.63
2023-05-20T14:15:37.020Z,99690.19
2023-05-20T14:18:05.102Z,99685.94
2023-05-20T14:20:33.130Z,99686.22
2023-05-20T14:23:01.349Z,99681.84
2023-05-20T14:25:29.752Z,99683.84
2023-05-20T14:27:58.072Z,99687.09
2023-05-20T14:30:25.788Z,99674.72
2023-05-20T14:32:53.751Z,99677.94
2023-05-20T14:35:21.393Z,99673.53
2023-05-20T14:37:49.199Z,99680.94
2023-05-20T14:40:17.163Z,99679.69
2023-05-20T14:42:44.780Z,99678.03
2023-05-20T14:45:12.477Z,99669.56
2023-05-20T14:47:40.548Z,99664.72
2023-05-20T14:50:08.456Z,99671.81
2023-05-20T14:52:36.166Z,99666.31
2023-05-20T14:55:04.695Z,99667.06
2023-05-20T14:57:32.286Z,99674.56
2023-05-20T15:00:00.375Z,99670.50
2023-05-20T15:02:28.477Z,99670.50
2023-05-20T15:04:56.110Z,99663.28
2023-05-20T15:07:23.756Z,99657.22
2023-05-20T15:09:51.741Z,99657.72
2023-05-20T15:12:19.345Z,99649.72
2023-05-20T15:14:47.075Z,99649.59
2023-05-20T15:17:15.185Z,99653.66
2023-05-20T15:19:42.851Z,99648.00
2023-05-20T15:22:10.586Z,99639.31
2023-05-20T15:24:38.543Z,99639.72
2023-05-20T15:27:06.339Z,99640.25
2023-05-20T15:29:34.171Z,99633.94
2023-05-20T15:32:02.340Z,99632.38
2023-05-20T15:34:30.069Z,99627.34
2023-05-20T15:36:58.004Z,99626.91
2023-05-20T15:39:26.052Z,99622.47
2023-05-20T15:41:53.728Z,99619.87
2023-05-20T15:44:21.448Z,99609.81
2023-05-20T15:46:49.479Z,99614.06
2023-05-20T15:49:17.102Z,99614.53
2023-05-20T15:51:52.320Z,99605.41
2023-05-20T15:54:30.132Z,99614.53
2023-05-20T15:59:46.498Z,99609.69
2023-05-20T16:02:14.168Z,99601.38
2023-05-20T16:04:42.217Z,99602.94
2023-05-20T16:07:09.782Z,99609.69
2023-05-20T16:09:37.412Z,99613.34
2023-05-20T16:12:06.048Z,99614.53
2023-05-20T16:14:33.764Z,99612.25
2023-05-20T16:17:01.439Z,99608.03
2023-05-20T16:19:29.606Z,99617.56
2023-05-20T16:21:57.430Z,99608.09
2023-05-20T16:24:25.120Z,99598.72
2023-05-20T16:26:53.678Z,99602.25
2023-05-20T16:29:21.439Z,99599.53
2023-05-20T16:31:49.219Z,99601.91
2023-05-20T16:34:17.203Z,99608.97
2023-05-20T16:36:44.826Z,99596.81
2023-05-20T16:39:12.932Z,99597.59
2023-05-20T16:41:42.443Z,99601.12
2023-05-20T16:44:10.586Z,99607.38
2023-05-20T16:46:38.313Z,99608.19
2023-05-20T16:49:06.652Z,99612.84
2023-05-20T16:51:34.393Z,99611.66
2023-05-20T16:54:01.926Z,99612.84
2023-05-20T16:56:31.939Z,99612.03
2023-05-20T16:58:59.894Z,99608.09
2023-05-20T17:01:27.755Z,99611.63
2023-05-20T17:03:55.936Z,99602.44
2023-05-20T17:06:23.629Z,99609.94
2023-05-20T17:08:51.293Z,99608.12
2023-05-20T17:11:19.237Z,99617.12
2023-05-20T17:13:46.878Z,99616.72
2023-05-20T17:16:14.864Z,99617.50
2023-05-20T17:18:43.155Z,99619.91
2023-05-20T17:21:10.776Z,99629.66
2023-05-20T17:23:38.458Z,99620.25
2023-05-20T17:26:06.343Z,99632.34
2023-05-20T17:28:34.468Z,99626.19
2023-05-20T17:31:02.021Z,99621.72
2023-05-20T17:33:30.045Z,99623.19
2023-05-20T17:35:58.080Z,99618.00
2023-05-20T17:38:25.695Z,99625.31
2023-05-20T17:40:54.257Z,99629.22
2023-05-20T17:43:21.928Z,99624.47
2023-05-20T17:45:49.536Z,99624.38
2023-05-20T17:48:17.584Z,99617.41
2023-05-20T17:50:45.231Z,99625.81
2023-05-20T17:53:12.974Z,99620.16
2023-05-20T17:55:41.168Z,99618.19
2023-05-20T17:58:08.821Z,99626.16
2023-05-20T18:00:36.833Z,99630.38
2023-05-20T18:03:04.916Z,99624.53
2023-05-20T18:05:32.723Z,99627.84
2023-05-20T18:08:00.908Z,99622.44
2023-05-20T18:10:29.212Z,99624.09
2023-05-20T18:12:56.869Z,99627.78
2023-05-20T18:15:24.670Z,99623.59
2023-05-20T18:17:52.814Z,99617.19
2023-05-20T18:20:21.035Z,99620.03
2023-05-20T18:22:48.728Z,99621.28
2023-05-20T18:25:26.191Z,99621.59
2023-05-20T18:27:56.898Z,99621.38
2023-05-20T18:30:25.149Z,99620.59
2023-05-20T18:32:52.806Z,99617.22
2023-05-20T18:35:20.781Z,99622.44
2023-05-20T18:37:56.441Z,99629.72
2023-05-20T18:40:24.140Z,99626.28
2023-05-20T18:42:52.220Z,99636.19
2023-05-20T18:45:21.183Z,99630.59
2023-05-20T18:47:48.855Z,99630.38
2023-05-20T18:50:16.904Z,99635.97
2023-05-20T18:52:44.632Z,99633.78
2023-05-20T18:55:12.319Z,99637.59
2023-05-20T18:57:40.197Z,99635.28
2023-05-20T19:00:08.720Z,99633.34
2023-05-20T19:02:36.462Z,99638.16
2023-05-20T19:05:06.859Z,99639.91
2023-05-20T19:07:34.734Z,99639.69
2023-05-20T19:10:02.467Z,99642.22
2023-05-20T19:12:30.452Z,99646.50
2023-05-20T19:14:58.178Z,99643.00
2023-05-20T19:17:26.033Z,99645.91
2023-05-20T19:19:53.930Z,99647.00
2023-05-20T19:22:21.597Z,99642.37
2023-05-20T19:24:49.227Z,99649.94
2023-05-20T19:27:17.232Z,99653.16
2023-05-20T19:29:44.935Z,99653.41
2023-05-20T19:32:12.569Z,99646.62
2023-05-20T19:34:40.633Z,99656.59
2023-05-20T19:37:08.278Z,99655.44
2023-05-20T19:39:36.282Z,99656.81
2023-05-20T19:42:04.561Z,99659.19
2023-05-20T19:44:32.198Z,99669.00
2023-05-20T19:47:00.394Z,99654.88
2023-05-20T19:49:28.443Z,99651.69
2023-05-20T19:52:01.434Z,99656.06
2023-05-20T19:54:29.807Z,99651.53
2023-05-20T19:56:57.480Z,99645.16
2023-05-20T19:59:25.074Z,99650.97
2023-05-20T20:01:54.299Z,99655.72
2023-05-20T20:04:22.714Z,99645.28
2023-05-20T20:06:54.106Z,99645.19
2023-05-20T20:09:22.104Z,99647.84
2023-05-20T20:11:53.753Z,99651.00
2023-05-20T20:14:26.317Z,99648.97
2023-05-20T20:16:54.353Z,99645.38
2023-05-20T20:19:23.019Z,99653.28
2023-05-20T20:21:52.090Z,99652.03
2023-05-20T20:24:20.069Z,99645.81
2023-05-20T20:26:47.742Z,99650.31
2023-05-20T20:29:16.521Z,99644.78
2023-05-20T20:31:44.548Z,99644.78
2023-05-20T20:34:12.285Z,99638.97
2023-05-20T20:36:39.973Z,99638.53
2023-05-20T20:39:07.882Z,99642.13
2023-05-20T20:41:36.054Z,99643.81
2023-05-20T20:44:03.680Z,99646.97
2023-05-20T20:46:31.777Z,99645.41
2023-05-20T20:48:59.746Z,99643.97
2023-05-20T20:51:30.036Z,99639.97
2023-05-20T20:53:59.494Z,99642.16
2023-05-20T20:56:29.671Z,99640.22
2023-05-20T20:58:57.387Z,99639.44
2023-05-20T21:01:25.746Z,99634.25
2023-05-20T21:03:53.851Z,99633.09
2023-05-20T21:06:21.608Z,99634.50
2023-05-20T21:08:49.747Z,99626.09
2023-05-20T21:11:17.606Z,99628.03
2023-05-20T21:13:45.309Z,99631.31
2023-05-20T21:16:13.337Z,99628.25
2023-05-20T21:18:41.523Z,99633.88
2023-05-20T21:21:09.117Z,99631.25
2023-05-20T21:23:37.423Z,99628.53
2023-05-20T21:26:14.875Z,99635.91
2023-05-20T21:28:43.116Z,99631.50
2023-05-20T21:31:10.906Z,99625.97
2023-05-20T21:33:38.597Z,99633.25
2023-05-20T21:36:06.797Z,99627.72
2023-05-20T21:38:34.509Z,99632.34
2023-05-20T21:41:02.135Z,99620.13
2023-05-20T21:43:30.028Z,99619.75
2023-05-20T21:45:57.724Z,99619.25
2023-05-20T21:48:25.491Z,99617.84
2023-05-20T21:50:53.424Z,99623.75
2023-05-20T21:53:21.069Z,99629.19
2023-05-20T21:55:48.825Z,99618.03
2023-05-20T21:58:16.894Z,99616.22
2023-05-20T22:00:44.579Z,99609.47
2023-05-20T22:03:12.771Z,99605.59
2023-05-20T22:05:40.761Z,99617.59
2023-05-20T22:08:08.737Z,99618.03
2023-05-20T22:10:36.670Z,99620.34
2023-05-20T22:13:04.603Z,99622.78
2023-05-20T22:15:32.297Z,99622.25
2023-05-20T22:18:00.383Z,99620.19
2023-05-20T22:20:27.993Z,99621.13
2023-05-20T22:22:55.706Z,99621.22
2023-05-20T22:25:23.607Z,99616.91
2023-05-20T22:27:51.289Z,99615.25
2023-05-20T22:30:18.997Z,99620.84
2023-05-20T22:32:47.022Z,99627.75
2023-05-20T22:35:14.723Z,99619.72
2023-05-20T22:37:42.356Z,99622.97
2023-05-20T22:40:10.581Z,99625.31
2023-05-20T22:42:38.292Z,99627.87
2023-05-20T22:45:06.534Z,99623.06
2023-05-20T22:47:34.557Z,99619.63
2023-05-20T22:50:02.206Z,99621.34
2023-05-20T22:52:29.957Z,99620.81
2023-05-20T22:54:58.145Z,99621.97
2023-05-20T22:57:25.895Z,99632.94
2023-05-20T22:59:53.621Z,99634.25
2023-05-20T23:02:21.948Z,99639.25
2023-05-20T23:04:50.338Z,99643.50
2023-05-20T23:07:18.109Z,99647.28
2023-05-20T23:09:46.346Z,99655.28
2023-05-20T23:12:17.298Z,99640.81
2023-05-20T23:14:45.030Z,99633.13
2023-05-20T23:17:12.998Z,99636.53
2023-05-20T23:19:40.830Z,99651.69
2023-05-20T23:22:09.065Z,99640.63
2023-05-20T23:24:37.133Z,99633.91
2023-05-20T23:27:04.977Z,99641.16
2023-05-20T23:29:32.704Z,99647.38
2023-05-20T23:32:00.905Z,99638.22
2023-05-20T23:34:28.544Z,99640.59
2023-05-20T23:36:56.534Z,99639.59
2023-05-20T23:39:24.444Z,99638.09
2023-05-20T23:41:52.110Z,99636.78
2023-05-20T23:44:19.755Z,99634.94
2023-05-20T23:46:47.680Z,99630.88
2023-05-20T23:49:15.902Z,99624.88
2023-05-20T23:51:43.885Z,99635.03
2023-05-20T23:54:11.734Z,99627.59
2023-05-20T23:56:39.451Z,99626.41
2023-05-20T23:59:07.101Z,99624.59
